createdAt,value
2023-05-25T00:01:10.482Z,8.03
2023-05-25T00:03:43.998Z,7.71
2023-05-25T00:06:18.388Z,7.76
2023-05-25T00:08:54.886Z,8.04
2023-05-25T00:11:27.829Z,8.15
2023-05-25T00:14:02.106Z,8.09
2023-05-25T00:16:37.500Z,7.88
2023-05-25T00:19:11.080Z,7.88
2023-05-25T00:21:44.283Z,7.42
2023-05-25T00:24:18.274Z,7.61
2023-05-25T00:26:51.128Z,7.68
2023-05-25T00:29:26.189Z,7.77
2023-05-25T00:31:59.141Z,7.82
2023-05-25T00:34:31.959Z,7.76
2023-05-25T00:37:05.051Z,7.82
2023-05-25T00:39:38.015Z,7.93
2023-05-25T00:42:11.471Z,7.76
2023-05-25T00:44:45.907Z,7.87
2023-05-25T00:47:20.934Z,7.79
2023-05-25T00:49:53.818Z,7.67
2023-05-25T00:52:27.159Z,7.45
2023-05-25T00:55:03.412Z,7.49
2023-05-25T00:57:38.253Z,7.64
2023-05-25T01:00:15.446Z,7.76
2023-05-25T01:02:52.901Z,7.72
2023-05-25T01:05:29.809Z,7.90
2023-05-25T01:08:06.118Z,8.11
2023-05-25T01:10:40.586Z,7.54
2023-05-25T01:13:15.593Z,7.15
2023-05-25T01:15:50.885Z,7.52
2023-05-25T01:18:23.787Z,7.85
2023-05-25T01:21:13.141Z,8.12
2023-05-25T01:23:52.068Z,7.84
2023-05-25T01:26:28.244Z,7.39
2023-05-25T01:29:03.328Z,7.49
2023-05-25T01:31:37.149Z,7.80
2023-05-25T01:34:12.296Z,7.81
2023-05-25T01:36:49.352Z,7.76
2023-05-25T01:39:23.349Z,7.71
2023-05-25T01:41:56.158Z,7.70
2023-05-25T01:44:29.975Z,7.61
2023-05-25T01:47:09.630Z,7.46
2023-05-25T01:49:47.761Z,7.46
2023-05-25T01:52:27.377Z,7.69
2023-05-25T01:55:06.431Z,7.46
2023-05-25T01:57:44.760Z,7.56
2023-05-25T02:00:20.069Z,7.58
2023-05-25T02:02:55.159Z,7.47
2023-05-25T02:05:28.364Z,7.46
2023-05-25T02:08:02.683Z,7.51
2023-05-25T02:10:38.347Z,7.63
2023-05-25T02:13:11.267Z,7.63
2023-05-25T02:15:44.266Z,7.51
2023-05-25T02:18:18.289Z,7.34
2023-05-25T02:20:51.649Z,7.44
2023-05-25T02:23:25.901Z,7.45
2023-05-25T02:25:58.776Z,7.39
2023-05-25T02:28:31.551Z,7.36
2023-05-25T02:31:04.361Z,7.19
2023-05-25T02:33:37.240Z,7.21
2023-05-25T02:36:10.195Z,6.94
2023-05-25T02:38:44.455Z,7.09
2023-05-25T02:41:17.895Z,6.94
2023-05-25T02:43:51.259Z,6.83
2023-05-25T02:46:24.149Z,6.74
2023-05-25T02:48:57.116Z,6.81
2023-05-25T02:51:32.413Z,6.59
2023-05-25T02:54:17.483Z,6.52
2023-05-25T02:56:50.735Z,6.52
2023-05-25T02:59:24.926Z,6.56
2023-05-25T03:01:57.787Z,6.48
2023-05-25T03:04:31.425Z,6.59
2023-05-25T03:07:04.890Z,6.53
2023-05-25T03:09:39.411Z,6.60
2023-05-25T03:12:12.360Z,6.62
2023-05-25T03:14:45.421Z,6.66
2023-05-25T03:17:18.497Z,6.64
2023-05-25T03:19:52.156Z,6.71
2023-05-25T03:22:25.670Z,6.83
2023-05-25T03:25:00.716Z,6.79
2023-05-25T03:27:33.546Z,6.96
2023-05-25T03:30:07.567Z,7.03
2023-05-25T03:32:40.572Z,7.15
2023-05-25T03:35:13.349Z,6.99
2023-05-25T03:37:46.171Z,7.11
2023-05-25T03:40:20.517Z,7.09
2023-05-25T03:42:53.330Z,7.11
2023-05-25T03:45:27.138Z,6.92
2023-05-25T03:48:00.263Z,7.15
2023-05-25T03:50:34.229Z,7.28
2023-05-25T03:53:07.396Z,7.17
2023-05-25T03:55:41.967Z,7.23
2023-05-25T03:58:16.075Z,7.25
2023-05-25T04:00:50.411Z,7.39
2023-05-25T04:03:23.945Z,7.18
2023-05-25T04:05:58.149Z,7.11
2023-05-25T04:08:30.982Z,7.14
2023-05-25T04:11:05.908Z,7.31
2023-05-25T04:13:40.264Z,7.19
2023-05-25T04:16:14.860Z,7.16
2023-05-25T04:18:48.216Z,7.29
2023-05-25T04:21:21.561Z,7.32
2023-05-25T04:23:54.496Z,7.49
2023-05-25T04:26:28.618Z,7.44
2023-05-25T04:29:03.001Z,7.35
2023-05-25T04:31:49.436Z,7.48
2023-05-25T04:34:51.383Z,7.63
2023-05-25T04:37:33.424Z,7.70
2023-05-25T04:40:14.118Z,7.80
2023-05-25T04:42:49.433Z,7.69
2023-05-25T04:45:23.936Z,7.78
2023-05-25T04:47:58.563Z,7.78
2023-05-25T04:50:33.582Z,7.62
2023-05-25T04:53:06.510Z,7.68
2023-05-25T04:55:40.013Z,7.79
2023-05-25T04:58:15.206Z,7.72
2023-05-25T05:00:49.736Z,7.83
2023-05-25T05:03:24.260Z,7.83
2023-05-25T05:05:57.379Z,8.05
2023-05-25T05:08:34.222Z,7.95
2023-05-25T05:11:07.334Z,8.13
2023-05-25T05:13:41.832Z,8.11
2023-05-25T05:16:14.698Z,8.28
2023-05-25T05:18:48.389Z,8.47
2023-05-25T05:21:23.347Z,8.45
2023-05-25T05:24:02.262Z,8.50
2023-05-25T05:26:48.123Z,8.72
2023-05-25T05:29:32.039Z,8.68
2023-05-25T05:32:05.129Z,8.75
2023-05-25T05:34:38.614Z,8.87
2023-05-25T05:37:19.358Z,8.91
2023-05-25T05:39:53.229Z,9.20
2023-05-25T05:42:27.025Z,9.38
2023-05-25T05:45:01.194Z,9.44
2023-05-25T05:47:34.783Z,9.52
2023-05-25T05:50:08.855Z,9.71
2023-05-25T05:52:43.000Z,9.81
2023-05-25T05:55:17.596Z,9.90
2023-05-25T05:57:50.798Z,10.17
2023-05-25T06:00:26.975Z,10.26
2023-05-25T06:03:01.091Z,10.36
2023-05-25T06:05:35.641Z,10.35
2023-05-25T06:08:10.171Z,10.57
2023-05-25T06:10:43.337Z,10.90
2023-05-25T06:13:16.614Z,11.01
2023-05-25T06:15:50.781Z,11.17
2023-05-25T06:18:28.381Z,11.22
2023-05-25T06:21:01.914Z,11.41
2023-05-25T06:23:35.094Z,11.74
2023-05-25T06:26:08.452Z,11.71
2023-05-25T06:28:42.405Z,11.91
2023-05-25T06:31:17.039Z,11.97
2023-05-25T06:33:49.903Z,12.24
2023-05-25T06:36:22.822Z,12.45
2023-05-25T06:38:55.978Z,12.40
2023-05-25T06:41:29.866Z,12.77
2023-05-25T06:44:02.773Z,12.83
2023-05-25T06:46:39.666Z,13.46
2023-05-25T06:49:12.818Z,13.40
2023-05-25T06:51:46.297Z,13.63
2023-05-25T06:54:19.658Z,13.69
2023-05-25T06:56:52.547Z,14.13
2023-05-25T06:59:25.369Z,14.26
2023-05-25T07:02:00.245Z,14.72
2023-05-25T07:04:34.630Z,14.63
2023-05-25T07:07:08.081Z,14.97
2023-05-25T07:09:41.717Z,15.06
2023-05-25T07:12:14.652Z,15.01
2023-05-25T07:14:48.512Z,15.74
2023-05-25T07:17:23.327Z,15.98
2023-05-25T07:19:56.142Z,16.20
2023-05-25T07:22:28.998Z,15.72
2023-05-25T07:25:01.772Z,15.95
2023-05-25T07:27:36.186Z,16.24
2023-05-25T07:30:10.600Z,16.52
2023-05-25T07:32:44.774Z,16.61
2023-05-25T07:35:17.560Z,16.93
2023-05-25T07:37:57.564Z,17.12
2023-05-25T07:40:30.463Z,17.08
2023-05-25T07:43:03.232Z,17.48
2023-05-25T07:45:36.050Z,17.51
2023-05-25T07:48:10.281Z,17.73
2023-05-25T07:50:43.229Z,17.85
2023-05-25T07:53:16.021Z,18.22
2023-05-25T07:55:48.873Z,18.07
2023-05-25T07:58:21.610Z,18.29
2023-05-25T08:00:54.429Z,18.71
2023-05-25T08:03:39.903Z,18.65
2023-05-25T08:06:20.764Z,18.48
2023-05-25T08:08:53.573Z,18.53
2023-05-25T08:11:27.678Z,18.35
2023-05-25T08:14:00.587Z,18.53
2023-05-25T08:16:33.478Z,18.99
2023-05-25T08:19:07.709Z,19.49
2023-05-25T08:21:40.674Z,18.85
2023-05-25T08:24:13.594Z,19.10
2023-05-25T08:26:54.817Z,19.77
2023-05-25T08:29:28.075Z,20.15
2023-05-25T08:32:00.925Z,20.13
2023-05-25T08:34:35.429Z,20.23
2023-05-25T08:37:08.242Z,20.29
2023-05-25T08:39:41.048Z,20.49
2023-05-25T08:42:13.946Z,20.78
2023-05-25T08:44:46.893Z,20.49
2023-05-25T08:47:23.958Z,20.81
2023-05-25T08:49:59.691Z,20.37
2023-05-25T08:52:35.338Z,20.46
2023-05-25T08:55:10.425Z,20.92
2023-05-25T08:57:50.014Z,20.42
2023-05-25T09:00:29.319Z,20.98
2023-05-25T09:03:08.262Z,20.56
2023-05-25T09:05:43.557Z,20.68
2023-05-25T09:08:18.146Z,20.51
2023-05-25T09:10:52.716Z,21.04
2023-05-25T09:13:25.718Z,20.79
2023-05-25T09:15:58.677Z,21.01
2023-05-25T09:18:31.565Z,21.20
2023-05-25T09:21:06.201Z,21.39
2023-05-25T09:23:39.284Z,21.20
2023-05-25T09:26:12.142Z,21.43
2023-05-25T09:28:48.398Z,21.61
2023-05-25T09:31:24.751Z,22.10
2023-05-25T09:34:00.204Z,22.41
2023-05-25T09:36:35.557Z,22.46
2023-05-25T09:39:10.249Z,21.92
2023-05-25T09:41:43.073Z,21.76
2023-05-25T09:44:15.855Z,22.11
2023-05-25T09:46:49.169Z,21.95
2023-05-25T09:49:22.639Z,22.28
2023-05-25T09:51:57.188Z,22.11
2023-05-25T09:54:30.653Z,22.22
2023-05-25T09:57:05.503Z,22.45
2023-05-25T09:59:38.769Z,22.60
2023-05-25T10:02:12.017Z,22.86
2023-05-25T10:04:46.411Z,23.56
2023-05-25T10:07:21.259Z,23.27
2023-05-25T10:09:56.795Z,22.70
2023-05-25T10:12:31.564Z,23.32
2023-05-25T10:15:05.538Z,23.63
2023-05-25T10:17:51.523Z,23.27
2023-05-25T10:20:28.265Z,23.45
2023-05-25T10:23:09.599Z,23.26
2023-05-25T10:25:46.344Z,24.10
2023-05-25T10:28:23.438Z,24.03
2023-05-25T10:30:57.822Z,23.54
2023-05-25T10:38:52.692Z,24.23
2023-05-25T10:41:26.264Z,23.87
2023-05-25T10:43:59.784Z,24.17
2023-05-25T10:46:32.747Z,23.98
2023-05-25T10:49:05.856Z,23.25
2023-05-25T10:51:39.656Z,23.96
2023-05-25T10:54:14.800Z,24.08
2023-05-25T10:57:12.769Z,24.99
2023-05-25T10:59:50.591Z,24.50
2023-05-25T11:02:24.450Z,24.45
2023-05-25T11:05:32.823Z,24.67
2023-05-25T11:08:08.543Z,24.63
2023-05-25T11:10:55.133Z,24.98
2023-05-25T11:13:39.800Z,24.77
2023-05-25T11:16:24.554Z,24.74
2023-05-25T11:18:58.629Z,24.93
2023-05-25T11:21:45.558Z,25.22
2023-05-25T11:24:18.886Z,24.90
2023-05-25T11:26:58.375Z,25.63
2023-05-25T11:29:36.197Z,25.29
2023-05-25T11:32:18.243Z,24.39
2023-05-25T11:34:54.123Z,24.63
2023-05-25T11:37:31.347Z,24.90
2023-05-25T11:40:09.311Z,24.88
2023-05-25T11:42:43.764Z,25.11
2023-05-25T11:45:16.737Z,25.73
2023-05-25T11:47:49.662Z,25.72
2023-05-25T11:50:22.726Z,25.20
2023-05-25T11:52:55.668Z,25.10
2023-05-25T11:55:28.773Z,25.81
2023-05-25T11:58:03.005Z,24.99
2023-05-25T12:00:35.790Z,25.07
2023-05-25T12:03:10.489Z,24.75
2023-05-25T12:05:43.543Z,25.07
2023-05-25T12:08:17.030Z,25.83
2023-05-25T12:10:52.142Z,26.04
2023-05-25T12:13:26.400Z,25.81
2023-05-25T12:16:00.299Z,25.96
2023-05-25T12:18:33.323Z,25.58
2023-05-25T12:21:08.391Z,26.03
2023-05-25T12:23:41.422Z,26.40
2023-05-25T12:26:16.354Z,25.98
2023-05-25T12:29:04.887Z,26.30
2023-05-25T12:31:39.623Z,25.83
2023-05-25T12:34:13.842Z,26.24
2023-05-25T12:36:48.083Z,26.40
2023-05-25T12:39:34.606Z,26.19
2023-05-25T12:42:14.573Z,25.90
2023-05-25T12:44:48.772Z,26.12
2023-05-25T12:47:23.691Z,26.14
2023-05-25T12:50:12.099Z,26.18
2023-05-25T12:52:46.783Z,26.24
2023-05-25T12:55:20.464Z,26.44
2023-05-25T12:57:53.968Z,26.08
2023-05-25T13:00:31.913Z,26.54
2023-05-25T13:03:07.605Z,26.13
2023-05-25T13:05:40.700Z,26.15
2023-05-25T13:08:13.664Z,26.04
2023-05-25T13:10:48.607Z,25.99
2023-05-25T13:13:21.476Z,26.28
2023-05-25T13:15:55.642Z,26.20
2023-05-25T13:18:28.425Z,26.81
2023-05-25T13:21:01.377Z,26.49
2023-05-25T13:23:34.394Z,26.88
2023-05-25T13:26:07.712Z,26.53
2023-05-25T13:28:40.530Z,26.69
2023-05-25T13:31:14.687Z,27.33
2023-05-25T13:33:47.567Z,26.67
2023-05-25T13:36:20.480Z,26.94
2023-05-25T13:38:53.363Z,27.23
2023-05-25T13:41:26.744Z,27.52
2023-05-25T13:43:59.690Z,27.15
2023-05-25T13:46:35.819Z,26.16
2023-05-25T13:49:08.768Z,26.37
2023-05-25T13:51:41.664Z,27.17
2023-05-25T13:54:14.440Z,26.73
2023-05-25T13:56:47.262Z,27.02
2023-05-25T13:59:20.071Z,26.43
2023-05-25T14:01:56.044Z,26.27
2023-05-25T14:04:29.413Z,26.62
2023-05-25T14:07:02.762Z,26.73
2023-05-25T14:09:35.607Z,26.56
2023-05-25T14:12:08.687Z,26.42
2023-05-25T14:14:41.675Z,27.02
2023-05-25T14:17:15.874Z,27.16
2023-05-25T14:19:48.666Z,26.53
2023-05-25T14:22:21.384Z,26.99
2023-05-25T14:24:54.285Z,27.09
2023-05-25T14:27:30.133Z,27.12
2023-05-25T14:30:02.990Z,26.85
2023-05-25T14:32:37.328Z,27.56
2023-05-25T14:35:10.756Z,27.21
2023-05-25T14:37:43.509Z,26.46
2023-05-25T14:40:16.590Z,26.60
2023-05-25T14:42:49.770Z,27.10
2023-05-25T14:45:22.646Z,27.17
2023-05-25T14:48:11.958Z,27.10
2023-05-25T14:50:49.118Z,26.16
2023-05-25T14:53:21.871Z,26.82
2023-05-25T14:55:54.641Z,26.95
2023-05-25T14:58:27.420Z,26.90
2023-05-25T15:01:00.257Z,26.24
2023-05-25T15:03:34.414Z,26.70
2023-05-25T15:06:08.045Z,26.73
2023-05-25T15:08:41.106Z,26.93
2023-05-25T15:11:13.861Z,26.47
2023-05-25T15:13:46.894Z,26.69
2023-05-25T15:16:19.782Z,26.93
2023-05-25T15:18:53.930Z,26.32
2023-05-25T15:21:26.916Z,26.66
2023-05-25T15:23:59.616Z,26.21
2023-05-25T15:26:32.361Z,26.60
2023-05-25T15:29:05.126Z,26.18
2023-05-25T15:31:37.904Z,26.72
2023-05-25T15:34:12.135Z,26.49
2023-05-25T15:36:44.909Z,26.34
2023-05-25T15:39:17.763Z,26.73
2023-05-25T15:41:51.016Z,26.63
2023-05-25T15:44:23.998Z,26.34
2023-05-25T15:46:56.848Z,25.98
2023-05-25T15:49:32.133Z,26.23
2023-05-25T15:52:05.542Z,25.88
2023-05-25T15:54:38.476Z,25.51
2023-05-25T15:57:11.335Z,25.95
2023-05-25T15:59:44.372Z,26.49
2023-05-25T16:02:17.348Z,25.92
2023-05-25T16:04:51.567Z,25.84
2023-05-25T16:07:24.420Z,25.78
2023-05-25T16:09:57.161Z,25.49
2023-05-25T16:12:29.880Z,25.79
2023-05-25T16:15:02.669Z,25.58
2023-05-25T16:17:35.469Z,25.59
2023-05-25T16:20:10.797Z,25.74
2023-05-25T16:22:43.564Z,25.52
2023-05-25T16:25:16.464Z,25.49
2023-05-25T16:27:49.355Z,25.81
2023-05-25T16:30:22.051Z,25.83
2023-05-25T16:32:54.946Z,25.51
2023-05-25T16:35:29.071Z,25.82
2023-05-25T16:38:01.952Z,25.52
2023-05-25T16:40:34.706Z,25.20
2023-05-25T16:43:07.528Z,25.00
2023-05-25T16:45:40.289Z,25.03
2023-05-25T16:48:13.314Z,25.09
2023-05-25T16:50:47.670Z,25.28
2023-05-25T16:53:20.450Z,24.90
2023-05-25T16:55:53.318Z,24.88
2023-05-25T16:58:26.199Z,24.51
2023-05-25T17:00:58.950Z,24.66
2023-05-25T17:03:31.739Z,24.60
2023-05-25T17:06:06.584Z,24.70
2023-05-25T17:08:39.386Z,24.57
2023-05-25T17:11:12.253Z,24.22
2023-05-25T17:13:45.070Z,24.28
2023-05-25T17:16:18.357Z,24.24
2023-05-25T17:18:51.346Z,24.02
2023-05-25T17:21:25.784Z,23.92
2023-05-25T17:23:59.289Z,23.78
2023-05-25T17:26:32.137Z,23.55
2023-05-25T17:29:06.154Z,23.80
2023-05-25T17:31:38.985Z,23.39
2023-05-25T17:34:11.757Z,23.47
2023-05-25T17:36:46.050Z,23.53
2023-05-25T17:39:18.961Z,23.46
2023-05-25T17:41:51.756Z,23.49
2023-05-25T17:44:26.056Z,23.14
2023-05-25T17:46:58.879Z,23.03
2023-05-25T17:49:31.898Z,22.53
2023-05-25T17:52:07.493Z,22.73
2023-05-25T17:54:40.230Z,22.59
2023-05-25T17:57:13.245Z,22.52
2023-05-25T17:59:46.038Z,22.18
2023-05-25T18:02:19.036Z,22.11
2023-05-25T18:04:52.036Z,22.07
2023-05-25T18:07:26.229Z,22.01
2023-05-25T18:09:59.026Z,21.72
2023-05-25T18:12:32.523Z,21.95
2023-05-25T18:15:06.045Z,21.66
2023-05-25T18:17:38.791Z,21.68
2023-05-25T18:20:12.414Z,21.50
2023-05-25T18:22:46.661Z,21.61
2023-05-25T18:25:19.472Z,21.23
2023-05-25T18:27:52.219Z,21.22
2023-05-25T18:30:25.051Z,21.17
2023-05-25T18:32:57.932Z,21.04
2023-05-25T18:35:31.083Z,20.87
2023-05-25T18:38:06.812Z,20.93
2023-05-25T18:40:39.654Z,20.54
2023-05-25T18:43:12.584Z,20.56
2023-05-25T18:45:45.502Z,20.26
2023-05-25T18:48:19.185Z,20.23
2023-05-25T18:50:52.373Z,20.10
2023-05-25T18:53:26.465Z,19.94
2023-05-25T18:55:59.242Z,19.83
2023-05-25T18:58:32.053Z,19.72
2023-05-25T19:01:04.971Z,19.60
2023-05-25T19:03:38.023Z,19.40
2023-05-25T19:06:11.027Z,19.06
2023-05-25T19:08:45.238Z,19.11
2023-05-25T19:11:19.615Z,19.16
2023-05-25T19:13:52.468Z,18.95
2023-05-25T19:16:25.313Z,18.76
2023-05-25T19:18:58.157Z,18.63
2023-05-25T19:21:31.377Z,18.56
2023-05-25T19:24:05.949Z,18.39
2023-05-25T19:26:39.243Z,18.29
2023-05-25T19:29:11.994Z,18.15
2023-05-25T19:31:44.789Z,18.13
2023-05-25T19:34:17.603Z,17.80
2023-05-25T19:36:59.790Z,17.80
2023-05-25T19:39:36.089Z,17.72
2023-05-25T19:42:09.354Z,17.56
2023-05-25T19:44:42.195Z,17.43
2023-05-25T19:47:15.156Z,17.29
2023-05-25T19:49:48.118Z,17.37
2023-05-25T19:52:21.031Z,17.24
2023-05-25T19:54:55.244Z,17.26
2023-05-25T19:57:28.057Z,17.13
2023-05-25T20:00:00.853Z,17.14
2023-05-25T20:02:33.985Z,16.93
2023-05-25T20:05:07.242Z,16.97
2023-05-25T20:07:40.025Z,16.73
2023-05-25T20:10:14.519Z,16.64
2023-05-25T20:12:47.261Z,16.62
2023-05-25T20:15:20.123Z,16.46
2023-05-25T20:17:52.871Z,16.37
2023-05-25T20:20:25.720Z,16.51
2023-05-25T20:22:58.748Z,16.50
2023-05-25T20:25:32.930Z,16.53
2023-05-25T20:28:05.652Z,16.49
2023-05-25T20:30:38.524Z,16.11
2023-05-25T20:33:11.323Z,16.09
2023-05-25T20:35:44.383Z,16.03
2023-05-25T20:38:17.438Z,16.02
2023-05-25T20:40:51.738Z,16.01
2023-05-25T20:43:24.557Z,16.00
2023-05-25T20:45:57.395Z,16.02
2023-05-25T20:48:30.266Z,15.89
2023-05-25T20:51:03.116Z,16.03
2023-05-25T20:53:36.262Z,15.90
2023-05-25T20:56:10.520Z,16.02
2023-05-25T20:58:43.340Z,16.05
2023-05-25T21:01:16.483Z,15.87
2023-05-25T21:03:49.280Z,15.94
2023-05-25T21:06:22.590Z,15.89
2023-05-25T21:08:55.764Z,15.75
2023-05-25T21:11:29.894Z,15.76
2023-05-25T21:14:03.229Z,15.74
2023-05-25T21:16:36.227Z,15.73
2023-05-25T21:19:09.414Z,15.57
2023-05-25T21:21:42.543Z,15.63
2023-05-25T21:24:15.548Z,15.51
2023-05-25T21:26:49.800Z,15.51
2023-05-25T21:29:22.777Z,15.51
2023-05-25T21:31:55.777Z,15.43
2023-05-25T21:34:29.118Z,15.43
2023-05-25T21:37:02.273Z,15.38
2023-05-25T21:39:35.407Z,15.22
2023-05-25T21:42:10.614Z,15.27
2023-05-25T21:44:43.475Z,15.15
2023-05-25T21:47:16.487Z,15.07
2023-05-25T21:49:50.030Z,15.09
2023-05-25T21:52:25.998Z,14.99
2023-05-25T21:54:59.114Z,14.82
2023-05-25T21:57:33.523Z,14.88
2023-05-25T22:00:07.940Z,14.71
2023-05-25T22:02:46.362Z,14.52
2023-05-25T22:05:19.575Z,14.45
2023-05-25T22:07:54.251Z,14.57
2023-05-25T22:10:28.942Z,14.44
2023-05-25T22:13:03.617Z,14.39
2023-05-25T22:15:36.343Z,14.33
2023-05-25T22:18:09.214Z,14.37
2023-05-25T22:20:42.339Z,14.32
2023-05-25T22:23:15.322Z,14.30
2023-05-25T22:25:48.159Z,14.37
2023-05-25T22:28:22.373Z,14.24
2023-05-25T22:30:55.232Z,14.16
2023-05-25T22:33:28.072Z,14.20
2023-05-25T22:36:00.958Z,14.31
2023-05-25T22:38:33.782Z,14.27
2023-05-25T22:41:06.563Z,14.21
2023-05-25T22:43:40.830Z,14.05
2023-05-25T22:46:14.304Z,14.12
2023-05-25T22:48:47.584Z,14.06
2023-05-25T22:51:21.627Z,14.06
2023-05-25T22:53:55.308Z,14.12
2023-05-25T22:56:28.353Z,14.02
2023-05-25T22:59:02.554Z,13.81
2023-05-25T23:01:35.467Z,13.71
2023-05-25T23:04:08.957Z,13.67
2023-05-25T23:06:42.010Z,13.53
2023-05-25T23:09:14.915Z,13.61
2023-05-25T23:11:47.683Z,13.54
2023-05-25T23:14:21.957Z,13.51
2023-05-25T23:16:54.816Z,13.46
2023-05-25T23:19:27.590Z,13.25
2023-05-25T23:22:00.602Z,13.20
2023-05-25T23:24:33.447Z,13.23
2023-05-25T23:27:07.011Z,13.15
2023-05-25T23:29:41.254Z,13.11
2023-05-25T23:32:14.087Z,13.06
2023-05-25T23:34:46.917Z,13.04
2023-05-25T23:37:19.727Z,13.03
2023-05-25T23:39:52.506Z,12.98
2023-05-25T23:42:28.133Z,13.03
2023-05-25T23:45:02.346Z,13.05
2023-05-25T23:47:35.130Z,12.95
2023-05-25T23:50:08.691Z,12.71
2023-05-25T23:52:41.877Z,12.87
2023-05-25T23:55:15.306Z,12.75
2023-05-25T23:57:48.339Z,12.83
